sensor_id;sensor_type;location;lat;lon;timestamp;P1;durP1;ratioP1;P2;durP2;ratioP2
59734;SDS011;64362;45.620;4.920;2023-02-01T00:01:50;6.72;;;4.57;;
59734;SDS011;64362;45.620;4.920;2023-02-01T00:04:15;5.35;;;3.78;;
59734;SDS011;64362;45.620;4.920;2023-02-01T00:06:41;6.25;;;4.00;;
59734;SDS011;64362;45.620;4.920;2023-02-01T00:09:06;5.68;;;4.30;;
59734;SDS011;64362;45.620;4.920;2023-02-01T00:11:33;6.40;;;3.95;;
59734;SDS011;64362;45.620;4.920;2023-02-01T00:13:58;6.05;;;3.88;;
59734;SDS011;64362;45.620;4.920;2023-02-01T00:16:28;5.70;;;3.88;;
59734;SDS011;64362;45.620;4.920;2023-02-01T00:19:01;7.68;;;4.00;;
59734;SDS011;64362;45.620;4.920;2023-02-01T00:21:27;5.70;;;4.03;;
59734;SDS011;64362;45.620;4.920;2023-02-01T00:23:53;6.00;;;4.20;;
59734;SDS011;64362;45.620;4.920;2023-02-01T00:26:20;5.43;;;3.55;;
59734;SDS011;64362;45.620;4.920;2023-02-01T00:28:51;5.57;;;3.78;;
59734;SDS011;64362;45.620;4.920;2023-02-01T00:31:17;6.40;;;3.88;;
59734;SDS011;64362;45.620;4.920;2023-02-01T00:33:42;6.80;;;3.92;;
59734;SDS011;64362;45.620;4.920;2023-02-01T00:36:08;8.73;;;4.10;;
59734;SDS011;64362;45.620;4.920;2023-02-01T00:38:36;5.47;;;4.00;;
59734;SDS011;64362;45.620;4.920;2023-02-01T00:41:06;7.35;;;4.43;;
59734;SDS011;64362;45.620;4.920;2023-02-01T00:43:42;5.30;;;3.75;;
59734;SDS011;64362;45.620;4.920;2023-02-01T00:46:09;6.72;;;3.97;;
59734;SDS011;64362;45.620;4.920;2023-02-01T00:48:34;5.55;;;4.38;;
59734;SDS011;64362;45.620;4.920;2023-02-01T00:51:00;6.65;;;4.45;;
59734;SDS011;64362;45.620;4.920;2023-02-01T00:53:27;6.32;;;3.88;;
59734;SDS011;64362;45.620;4.920;2023-02-01T00:55:52;6.07;;;4.35;;
59734;SDS011;64362;45.620;4.920;2023-02-01T00:58:18;6.35;;;4.32;;
59734;SDS011;64362;45.620;4.920;2023-02-01T01:00:43;6.38;;;4.15;;
59734;SDS011;64362;45.620;4.920;2023-02-01T01:03:09;6.60;;;4.28;;
59734;SDS011;64362;45.620;4.920;2023-02-01T01:05:44;5.20;;;4.57;;
59734;SDS011;64362;45.620;4.920;2023-02-01T01:08:10;5.72;;;4.15;;
59734;SDS011;64362;45.620;4.920;2023-02-01T01:10:36;6.57;;;3.88;;
59734;SDS011;64362;45.620;4.920;2023-02-01T01:13:01;5.82;;;4.25;;
59734;SDS011;64362;45.620;4.920;2023-02-01T01:15:27;6.07;;;4.35;;
59734;SDS011;64362;45.620;4.920;2023-02-01T01:17:52;8.35;;;4.45;;
59734;SDS011;64362;45.620;4.920;2023-02-01T01:20:18;6.63;;;4.38;;
59734;SDS011;64362;45.620;4.920;2023-02-01T01:22:46;7.15;;;4.70;;
59734;SDS011;64362;45.620;4.920;2023-02-01T01:25:12;6.18;;;4.20;;
59734;SDS011;64362;45.620;4.920;2023-02-01T01:27:38;6.90;;;3.90;;
59734;SDS011;64362;45.620;4.920;2023-02-01T01:30:03;6.75;;;4.63;;
59734;SDS011;64362;45.620;4.920;2023-02-01T01:32:29;6.18;;;4.35;;
59734;SDS011;64362;45.620;4.920;2023-02-01T01:34:55;5.38;;;3.80;;
59734;SDS011;64362;45.620;4.920;2023-02-01T01:37:20;5.75;;;4.05;;
59734;SDS011;64362;45.620;4.920;2023-02-01T01:39:46;6.18;;;4.10;;
59734;SDS011;64362;45.620;4.920;2023-02-01T01:42:11;6.15;;;4.25;;
59734;SDS011;64362;45.620;4.920;2023-02-01T01:47:23;7.07;;;4.55;;
59734;SDS011;64362;45.620;4.920;2023-02-01T01:49:49;6.93;;;4.45;;
59734;SDS011;64362;45.620;4.920;2023-02-01T01:52:15;5.80;;;3.83;;
59734;SDS011;64362;45.620;4.920;2023-02-01T01:54:41;6.53;;;4.13;;
59734;SDS011;64362;45.620;4.920;2023-02-01T01:57:17;6.53;;;4.22;;
59734;SDS011;64362;45.620;4.920;2023-02-01T01:59:58;5.90;;;4.60;;
59734;SDS011;64362;45.620;4.920;2023-02-01T02:02:39;7.55;;;4.25;;
59734;SDS011;64362;45.620;4.920;2023-02-01T02:05:06;7.57;;;4.68;;
59734;SDS011;64362;45.620;4.920;2023-02-01T02:07:34;6.50;;;3.83;;
59734;SDS011;64362;45.620;4.920;2023-02-01T02:10:03;6.20;;;4.15;;
59734;SDS011;64362;45.620;4.920;2023-02-01T02:12:31;6.57;;;4.07;;
59734;SDS011;64362;45.620;4.920;2023-02-01T02:14:56;7.25;;;4.32;;
59734;SDS011;64362;45.620;4.920;2023-02-01T02:34:08;6.97;;;5.13;;
59734;SDS011;64362;45.620;4.920;2023-02-01T02:39:24;6.72;;;4.93;;
59734;SDS011;64362;45.620;4.920;2023-02-01T02:45:17;7.20;;;4.75;;
59734;SDS011;64362;45.620;4.920;2023-02-01T02:48:17;7.10;;;4.60;;
59734;SDS011;64362;45.620;4.920;2023-02-01T02:56:45;7.68;;;5.30;;
59734;SDS011;64362;45.620;4.920;2023-02-01T02:59:30;7.15;;;5.00;;
59734;SDS011;64362;45.620;4.920;2023-02-01T03:02:14;7.55;;;5.43;;
59734;SDS011;64362;45.620;4.920;2023-02-01T03:04:59;7.90;;;5.50;;
59734;SDS011;64362;45.620;4.920;2023-02-01T03:10:12;8.52;;;5.82;;
59734;SDS011;64362;45.620;4.920;2023-02-01T03:12:43;7.25;;;5.57;;
59734;SDS011;64362;45.620;4.920;2023-02-01T03:18:06;7.50;;;5.10;;
59734;SDS011;64362;45.620;4.920;2023-02-01T03:20:37;8.27;;;5.20;;
59734;SDS011;64362;45.620;4.920;2023-02-01T03:23:06;8.55;;;5.85;;
59734;SDS011;64362;45.620;4.920;2023-02-01T03:25:32;7.55;;;5.15;;
59734;SDS011;64362;45.620;4.920;2023-02-01T03:28:00;6.82;;;5.13;;
59734;SDS011;64362;45.620;4.920;2023-02-01T03:30:43;8.35;;;5.82;;
59734;SDS011;64362;45.620;4.920;2023-02-01T03:33:10;6.60;;;5.03;;
59734;SDS011;64362;45.620;4.920;2023-02-01T03:35:59;7.55;;;5.28;;
59734;SDS011;64362;45.620;4.920;2023-02-01T03:43:45;7.15;;;5.00;;
59734;SDS011;64362;45.620;4.920;2023-02-01T03:46:17;8.13;;;5.68;;
59734;SDS011;64362;45.620;4.920;2023-02-01T03:48:51;7.38;;;5.20;;
59734;SDS011;64362;45.620;4.920;2023-02-01T03:51:17;8.18;;;5.85;;
59734;SDS011;64362;45.620;4.920;2023-02-01T03:53:44;8.38;;;6.20;;
59734;SDS011;64362;45.620;4.920;2023-02-01T03:56:12;8.05;;;5.75;;
59734;SDS011;64362;45.620;4.920;2023-02-01T03:58:38;6.68;;;5.22;;
59734;SDS011;64362;45.620;4.920;2023-02-01T04:01:05;8.45;;;5.93;;
59734;SDS011;64362;45.620;4.920;2023-02-01T04:03:33;8.10;;;5.30;;
59734;SDS011;64362;45.620;4.920;2023-02-01T04:05:58;8.23;;;5.50;;
59734;SDS011;64362;45.620;4.920;2023-02-01T04:08:26;7.13;;;5.20;;
59734;SDS011;64362;45.620;4.920;2023-02-01T04:10:52;7.90;;;5.53;;
59734;SDS011;64362;45.620;4.920;2023-02-01T04:13:17;7.70;;;5.35;;
59734;SDS011;64362;45.620;4.920;2023-02-01T04:15:43;7.70;;;5.40;;
59734;SDS011;64362;45.620;4.920;2023-02-01T04:18:08;8.05;;;5.70;;
59734;SDS011;64362;45.620;4.920;2023-02-01T04:20:34;6.90;;;5.65;;
59734;SDS011;64362;45.620;4.920;2023-02-01T04:22:59;7.82;;;5.43;;
59734;SDS011;64362;45.620;4.920;2023-02-01T04:25:27;6.95;;;5.78;;
59734;SDS011;64362;45.620;4.920;2023-02-01T04:27:53;9.38;;;6.05;;
59734;SDS011;64362;45.620;4.920;2023-02-01T04:30:18;8.20;;;5.60;;
59734;SDS011;64362;45.620;4.920;2023-02-01T04:32:44;8.50;;;5.50;;
59734;SDS011;64362;45.620;4.920;2023-02-01T04:35:09;6.53;;;4.70;;
59734;SDS011;64362;45.620;4.920;2023-02-01T04:37:36;7.20;;;5.15;;
59734;SDS011;64362;45.620;4.920;2023-02-01T04:40:02;7.72;;;5.30;;
59734;SDS011;64362;45.620;4.920;2023-02-01T04:42:28;6.63;;;5.28;;
59734;SDS011;64362;45.620;4.920;2023-02-01T04:44:54;8.48;;;6.20;;
59734;SDS011;64362;45.620;4.920;2023-02-01T04:47:19;7.65;;;5.60;;
59734;SDS011;64362;45.620;4.920;2023-02-01T04:49:45;7.22;;;5.20;;
59734;SDS011;64362;45.620;4.920;2023-02-01T04:52:10;7.28;;;5.20;;
59734;SDS011;64362;45.620;4.920;2023-02-01T04:54:36;7.18;;;5.80;;
59734;SDS011;64362;45.620;4.920;2023-02-01T04:57:01;8.15;;;5.68;;
59734;SDS011;64362;45.620;4.920;2023-02-01T04:59:27;7.70;;;5.60;;
59734;SDS011;64362;45.620;4.920;2023-02-01T05:01:53;7.88;;;5.50;;
59734;SDS011;64362;45.620;4.920;2023-02-01T05:04:19;7.78;;;5.68;;
59734;SDS011;64362;45.620;4.920;2023-02-01T05:06:44;8.63;;;5.10;;
59734;SDS011;64362;45.620;4.920;2023-02-01T05:09:10;8.60;;;5.68;;
59734;SDS011;64362;45.620;4.920;2023-02-01T05:11:36;7.90;;;5.10;;
59734;SDS011;64362;45.620;4.920;2023-02-01T05:14:20;7.45;;;5.45;;
59734;SDS011;64362;45.620;4.920;2023-02-01T05:16:45;8.10;;;5.50;;
59734;SDS011;64362;45.620;4.920;2023-02-01T05:19:11;7.40;;;5.15;;
59734;SDS011;64362;45.620;4.920;2023-02-01T05:21:37;5.43;;;4.40;;
59734;SDS011;64362;45.620;4.920;2023-02-01T05:24:02;6.25;;;4.90;;
59734;SDS011;64362;45.620;4.920;2023-02-01T05:26:45;6.85;;;5.35;;
59734;SDS011;64362;45.620;4.920;2023-02-01T05:29:11;7.75;;;4.72;;
59734;SDS011;64362;45.620;4.920;2023-02-01T05:31:37;7.40;;;4.68;;
59734;SDS011;64362;45.620;4.920;2023-02-01T05:34:02;7.38;;;4.78;;
59734;SDS011;64362;45.620;4.920;2023-02-01T05:36:28;6.10;;;4.90;;
59734;SDS011;64362;45.620;4.920;2023-02-01T05:38:54;7.15;;;4.90;;
59734;SDS011;64362;45.620;4.920;2023-02-01T05:41:19;5.80;;;4.60;;
59734;SDS011;64362;45.620;4.920;2023-02-01T05:43:44;6.53;;;5.30;;
59734;SDS011;64362;45.620;4.920;2023-02-01T05:46:10;6.53;;;4.30;;
59734;SDS011;64362;45.620;4.920;2023-02-01T05:48:38;5.68;;;4.85;;
59734;SDS011;64362;45.620;4.920;2023-02-01T05:51:07;5.47;;;4.40;;
59734;SDS011;64362;45.620;4.920;2023-02-01T05:53:33;7.82;;;5.43;;
59734;SDS011;64362;45.620;4.920;2023-02-01T05:55:58;6.43;;;4.78;;
59734;SDS011;64362;45.620;4.920;2023-02-01T05:58:23;4.90;;;4.10;;
59734;SDS011;64362;45.620;4.920;2023-02-01T06:00:49;6.07;;;4.78;;
59734;SDS011;64362;45.620;4.920;2023-02-01T06:03:14;5.97;;;4.60;;
59734;SDS011;64362;45.620;4.920;2023-02-01T06:05:40;7.93;;;5.53;;
59734;SDS011;64362;45.620;4.920;2023-02-01T06:08:05;6.38;;;4.38;;
59734;SDS011;64362;45.620;4.920;2023-02-01T06:10:32;6.80;;;4.85;;
59734;SDS011;64362;45.620;4.920;2023-02-01T06:12:58;6.18;;;4.72;;
59734;SDS011;64362;45.620;4.920;2023-02-01T06:15:24;6.82;;;4.55;;
59734;SDS011;64362;45.620;4.920;2023-02-01T06:17:49;5.57;;;4.47;;
59734;SDS011;64362;45.620;4.920;2023-02-01T06:20:15;6.50;;;4.45;;
59734;SDS011;64362;45.620;4.920;2023-02-01T06:22:41;5.22;;;4.32;;
59734;SDS011;64362;45.620;4.920;2023-02-01T06:25:07;6.68;;;4.47;;
59734;SDS011;64362;45.620;4.920;2023-02-01T06:27:34;6.32;;;4.90;;
59734;SDS011;64362;45.620;4.920;2023-02-01T06:29:59;6.10;;;5.18;;
59734;SDS011;64362;45.620;4.920;2023-02-01T06:32:25;8.52;;;5.25;;
59734;SDS011;64362;45.620;4.920;2023-02-01T06:34:50;5.25;;;4.40;;
59734;SDS011;64362;45.620;4.920;2023-02-01T06:37:17;6.10;;;4.45;;
59734;SDS011;64362;45.620;4.920;2023-02-01T06:39:46;5.72;;;4.60;;
59734;SDS011;64362;45.620;4.920;2023-02-01T06:42:13;6.70;;;4.75;;
59734;SDS011;64362;45.620;4.920;2023-02-01T06:44:38;6.57;;;4.63;;
59734;SDS011;64362;45.620;4.920;2023-02-01T06:47:03;5.68;;;4.50;;
59734;SDS011;64362;45.620;4.920;2023-02-01T06:49:29;10.45;;;5.78;;
59734;SDS011;64362;45.620;4.920;2023-02-01T06:51:54;9.07;;;5.03;;
59734;SDS011;64362;45.620;4.920;2023-02-01T06:54:20;7.80;;;5.18;;
59734;SDS011;64362;45.620;4.920;2023-02-01T06:56:45;10.75;;;5.35;;
59734;SDS011;64362;45.620;4.920;2023-02-01T06:59:11;9.90;;;5.38;;
59734;SDS011;64362;45.620;4.920;2023-02-01T07:01:37;9.07;;;5.22;;
59734;SDS011;64362;45.620;4.920;2023-02-01T07:04:02;7.75;;;4.90;;
59734;SDS011;64362;45.620;4.920;2023-02-01T07:06:28;7.55;;;4.95;;
59734;SDS011;64362;45.620;4.920;2023-02-01T07:08:53;7.55;;;5.07;;
59734;SDS011;64362;45.620;4.920;2023-02-01T07:11:21;7.72;;;5.00;;
59734;SDS011;64362;45.620;4.920;2023-02-01T07:13:47;7.03;;;5.38;;
59734;SDS011;64362;45.620;4.920;2023-02-01T07:16:13;9.63;;;5.15;;
59734;SDS011;64362;45.620;4.920;2023-02-01T07:18:41;9.63;;;5.50;;
59734;SDS011;64362;45.620;4.920;2023-02-01T07:21:07;10.88;;;5.40;;
59734;SDS011;64362;45.620;4.920;2023-02-01T07:23:33;7.78;;;5.07;;
59734;SDS011;64362;45.620;4.920;2023-02-01T07:26:00;8.73;;;5.82;;
59734;SDS011;64362;45.620;4.920;2023-02-01T07:28:29;9.32;;;4.85;;
59734;SDS011;64362;45.620;4.920;2023-02-01T07:31:01;7.55;;;4.85;;
59734;SDS011;64362;45.620;4.920;2023-02-01T07:33:28;10.02;;;5.30;;
59734;SDS011;64362;45.620;4.920;2023-02-01T07:35:53;8.60;;;5.00;;
59734;SDS011;64362;45.620;4.920;2023-02-01T07:38:19;9.60;;;5.20;;
59734;SDS011;64362;45.620;4.920;2023-02-01T07:40:46;8.98;;;4.82;;
59734;SDS011;64362;45.620;4.920;2023-02-01T07:43:12;8.02;;;4.88;;
59734;SDS011;64362;45.620;4.920;2023-02-01T07:45:38;11.63;;;5.32;;
59734;SDS011;64362;45.620;4.920;2023-02-01T07:48:03;9.23;;;5.15;;
59734;SDS011;64362;45.620;4.920;2023-02-01T07:50:29;11.05;;;5.57;;
59734;SDS011;64362;45.620;4.920;2023-02-01T07:52:54;7.05;;;4.60;;
59734;SDS011;64362;45.620;4.920;2023-02-01T07:55:20;9.48;;;4.57;;
59734;SDS011;64362;45.620;4.920;2023-02-01T07:57:46;9.10;;;4.90;;
59734;SDS011;64362;45.620;4.920;2023-02-01T08:00:12;14.88;;;4.93;;
59734;SDS011;64362;45.620;4.920;2023-02-01T08:03:00;7.68;;;4.57;;
59734;SDS011;64362;45.620;4.920;2023-02-01T08:05:25;7.57;;;4.57;;
59734;SDS011;64362;45.620;4.920;2023-02-01T08:07:51;9.25;;;4.57;;
59734;SDS011;64362;45.620;4.920;2023-02-01T08:10:17;9.48;;;4.72;;
59734;SDS011;64362;45.620;4.920;2023-02-01T08:12:43;9.30;;;4.80;;
59734;SDS011;64362;45.620;4.920;2023-02-01T08:15:13;7.93;;;4.28;;
59734;SDS011;64362;45.620;4.920;2023-02-01T08:17:40;7.38;;;4.70;;
59734;SDS011;64362;45.620;4.920;2023-02-01T08:20:06;7.97;;;4.72;;
59734;SDS011;64362;45.620;4.920;2023-02-01T08:22:32;8.15;;;4.82;;
59734;SDS011;64362;45.620;4.920;2023-02-01T08:24:57;6.85;;;4.32;;
59734;SDS011;64362;45.620;4.920;2023-02-01T08:27:26;10.02;;;4.40;;
59734;SDS011;64362;45.620;4.920;2023-02-01T08:29:52;6.90;;;4.35;;
59734;SDS011;64362;45.620;4.920;2023-02-01T08:32:19;5.68;;;4.25;;
59734;SDS011;64362;45.620;4.920;2023-02-01T08:34:44;5.22;;;4.35;;
59734;SDS011;64362;45.620;4.920;2023-02-01T08:37:10;6.82;;;4.00;;
59734;SDS011;64362;45.620;4.920;2023-02-01T08:39:35;6.22;;;4.30;;
59734;SDS011;64362;45.620;4.920;2023-02-01T08:42:01;5.40;;;4.10;;
59734;SDS011;64362;45.620;4.920;2023-02-01T08:44:46;5.93;;;3.83;;
59734;SDS011;64362;45.620;4.920;2023-02-01T08:47:12;5.55;;;4.13;;
59734;SDS011;64362;45.620;4.920;2023-02-01T08:49:37;6.55;;;4.32;;
59734;SDS011;64362;45.620;4.920;2023-02-01T08:52:03;6.68;;;3.88;;
59734;SDS011;64362;45.620;4.920;2023-02-01T08:54:28;7.72;;;4.30;;
59734;SDS011;64362;45.620;4.920;2023-02-01T08:56:54;6.70;;;3.72;;
59734;SDS011;64362;45.620;4.920;2023-02-01T08:59:20;8.02;;;4.30;;
59734;SDS011;64362;45.620;4.920;2023-02-01T09:01:45;6.15;;;3.75;;
59734;SDS011;64362;45.620;4.920;2023-02-01T09:04:10;7.78;;;4.07;;
59734;SDS011;64362;45.620;4.920;2023-02-01T09:06:36;6.70;;;4.25;;
59734;SDS011;64362;45.620;4.920;2023-02-01T09:09:01;6.70;;;3.95;;
59734;SDS011;64362;45.620;4.920;2023-02-01T09:11:27;6.78;;;3.85;;
59734;SDS011;64362;45.620;4.920;2023-02-01T09:13:53;7.97;;;4.03;;
59734;SDS011;64362;45.620;4.920;2023-02-01T09:16:18;6.25;;;3.90;;
59734;SDS011;64362;45.620;4.920;2023-02-01T09:18:43;5.32;;;3.78;;
59734;SDS011;64362;45.620;4.920;2023-02-01T09:21:09;7.25;;;3.67;;
59734;SDS011;64362;45.620;4.920;2023-02-01T09:23:34;6.45;;;3.42;;
59734;SDS011;64362;45.620;4.920;2023-02-01T09:26:03;4.22;;;3.22;;
59734;SDS011;64362;45.620;4.920;2023-02-01T09:28:29;6.70;;;3.90;;
59734;SDS011;64362;45.620;4.920;2023-02-01T09:30:59;5.82;;;3.63;;
59734;SDS011;64362;45.620;4.920;2023-02-01T09:33:26;7.40;;;3.40;;
59734;SDS011;64362;45.620;4.920;2023-02-01T09:35:59;5.35;;;3.50;;
59734;SDS011;64362;45.620;4.920;2023-02-01T09:38:25;6.10;;;3.33;;
59734;SDS011;64362;45.620;4.920;2023-02-01T09:40:52;5.20;;;3.25;;
59734;SDS011;64362;45.620;4.920;2023-02-01T09:46:33;7.15;;;3.60;;
59734;SDS011;64362;45.620;4.920;2023-02-01T09:49:00;5.03;;;3.55;;
59734;SDS011;64362;45.620;4.920;2023-02-01T09:51:32;5.72;;;3.50;;
59734;SDS011;64362;45.620;4.920;2023-02-01T09:56:36;7.03;;;3.95;;
59734;SDS011;64362;45.620;4.920;2023-02-01T10:02:03;5.32;;;3.67;;
59734;SDS011;64362;45.620;4.920;2023-02-01T10:04:33;6.20;;;3.50;;
59734;SDS011;64362;45.620;4.920;2023-02-01T10:09:34;5.50;;;3.45;;
59734;SDS011;64362;45.620;4.920;2023-02-01T10:26:20;5.53;;;3.47;;
59734;SDS011;64362;45.620;4.920;2023-02-01T10:28:49;5.57;;;3.25;;
59734;SDS011;64362;45.620;4.920;2023-02-01T10:31:16;4.00;;;2.88;;
59734;SDS011;64362;45.620;4.920;2023-02-01T10:33:43;5.72;;;3.38;;
59734;SDS011;64362;45.620;4.920;2023-02-01T10:38:57;5.75;;;3.42;;
59734;SDS011;64362;45.620;4.920;2023-02-01T10:41:24;5.10;;;3.30;;
59734;SDS011;64362;45.620;4.920;2023-02-01T10:43:56;7.18;;;3.72;;
59734;SDS011;64362;45.620;4.920;2023-02-01T10:46:23;4.82;;;3.38;;
59734;SDS011;64362;45.620;4.920;2023-02-01T10:48:50;4.43;;;2.95;;
59734;SDS011;64362;45.620;4.920;2023-02-01T10:51:20;6.72;;;3.67;;
59734;SDS011;64362;45.620;4.920;2023-02-01T10:56:14;7.13;;;3.50;;
59734;SDS011;64362;45.620;4.920;2023-02-01T10:58:43;4.78;;;3.30;;
59734;SDS011;64362;45.620;4.920;2023-02-01T11:01:16;6.60;;;3.45;;
59734;SDS011;64362;45.620;4.920;2023-02-01T11:03:54;5.35;;;3.50;;
59734;SDS011;64362;45.620;4.920;2023-02-01T11:11:25;5.78;;;3.72;;
59734;SDS011;64362;45.620;4.920;2023-02-01T11:13:56;5.55;;;2.97;;
59734;SDS011;64362;45.620;4.920;2023-02-01T11:16:28;6.13;;;3.30;;
59734;SDS011;64362;45.620;4.920;2023-02-01T11:19:00;5.32;;;2.97;;
59734;SDS011;64362;45.620;4.920;2023-02-01T11:21:25;4.45;;;2.90;;
59734;SDS011;64362;45.620;4.920;2023-02-01T11:23:51;5.00;;;3.28;;
59734;SDS011;64362;45.620;4.920;2023-02-01T11:31:29;5.93;;;3.00;;
59734;SDS011;64362;45.620;4.920;2023-02-01T11:33:59;6.78;;;2.92;;
59734;SDS011;64362;45.620;4.920;2023-02-01T11:36:30;6.47;;;3.10;;
59734;SDS011;64362;45.620;4.920;2023-02-01T11:39:07;8.10;;;3.17;;
59734;SDS011;64362;45.620;4.920;2023-02-01T11:41:42;6.47;;;3.42;;
59734;SDS011;64362;45.620;4.920;2023-02-01T11:44:19;6.78;;;3.10;;
59734;SDS011;64362;45.620;4.920;2023-02-01T11:46:47;6.18;;;2.92;;
59734;SDS011;64362;45.620;4.920;2023-02-01T11:49:20;6.43;;;2.92;;
59734;SDS011;64362;45.620;4.920;2023-02-01T11:57:09;5.93;;;3.90;;
59734;SDS011;64362;45.620;4.920;2023-02-01T11:59:55;8.60;;;3.10;;
59734;SDS011;64362;45.620;4.920;2023-02-01T12:05:30;7.20;;;3.28;;
59734;SDS011;64362;45.620;4.920;2023-02-01T12:16:43;7.85;;;2.85;;
59734;SDS011;64362;45.620;4.920;2023-02-01T12:22:22;5.93;;;2.83;;
59734;SDS011;64362;45.620;4.920;2023-02-01T12:35:00;5.53;;;2.80;;
59734;SDS011;64362;45.620;4.920;2023-02-01T12:49:38;4.78;;;2.90;;
59734;SDS011;64362;45.620;4.920;2023-02-01T12:55:47;7.15;;;3.40;;
59734;SDS011;64362;45.620;4.920;2023-02-01T12:58:17;5.03;;;2.72;;
59734;SDS011;64362;45.620;4.920;2023-02-01T13:05:51;5.40;;;2.70;;
59734;SDS011;64362;45.620;4.920;2023-02-01T13:08:25;3.67;;;2.47;;
59734;SDS011;64362;45.620;4.920;2023-02-01T13:18:50;5.15;;;2.38;;
59734;SDS011;64362;45.620;4.920;2023-02-01T13:21:17;3.88;;;2.28;;
59734;SDS011;64362;45.620;4.920;2023-02-01T13:23:47;4.97;;;2.55;;
59734;SDS011;64362;45.620;4.920;2023-02-01T13:26:13;4.25;;;2.80;;
59734;SDS011;64362;45.620;4.920;2023-02-01T13:28:44;4.50;;;2.20;;
59734;SDS011;64362;45.620;4.920;2023-02-01T13:36:43;5.43;;;2.33;;
59734;SDS011;64362;45.620;4.920;2023-02-01T13:41:55;3.33;;;2.25;;
59734;SDS011;64362;45.620;4.920;2023-02-01T13:47:03;3.90;;;2.10;;
59734;SDS011;64362;45.620;4.920;2023-02-01T13:49:51;3.00;;;1.90;;
59734;SDS011;64362;45.620;4.920;2023-02-01T13:52:24;3.65;;;2.15;;
59734;SDS011;64362;45.620;4.920;2023-02-01T13:55:03;3.53;;;1.90;;
59734;SDS011;64362;45.620;4.920;2023-02-01T13:57:40;3.55;;;1.92;;
59734;SDS011;64362;45.620;4.920;2023-02-01T14:00:22;4.35;;;2.08;;
59734;SDS011;64362;45.620;4.920;2023-02-01T14:03:10;5.97;;;2.17;;
59734;SDS011;64362;45.620;4.920;2023-02-01T14:13:28;3.60;;;2.03;;
59734;SDS011;64362;45.620;4.920;2023-02-01T14:23:40;4.57;;;2.17;;
59734;SDS011;64362;45.620;4.920;2023-02-01T14:26:09;3.65;;;1.70;;
59734;SDS011;64362;45.620;4.920;2023-02-01T14:28:38;3.35;;;2.05;;
59734;SDS011;64362;45.620;4.920;2023-02-01T14:31:17;5.15;;;1.98;;
59734;SDS011;64362;45.620;4.920;2023-02-01T14:33:55;5.45;;;2.05;;
59734;SDS011;64362;45.620;4.920;2023-02-01T14:36:23;6.90;;;2.30;;
59734;SDS011;64362;45.620;4.920;2023-02-01T14:38:49;5.25;;;2.45;;
59734;SDS011;64362;45.620;4.920;2023-02-01T14:41:21;4.65;;;1.85;;
59734;SDS011;64362;45.620;4.920;2023-02-01T14:49:39;3.40;;;1.88;;
59734;SDS011;64362;45.620;4.920;2023-02-01T14:52:13;3.10;;;1.90;;
59734;SDS011;64362;45.620;4.920;2023-02-01T14:54:41;3.10;;;1.90;;
59734;SDS011;64362;45.620;4.920;2023-02-01T14:57:20;3.13;;;1.98;;
59734;SDS011;64362;45.620;4.920;2023-02-01T14:59:51;3.08;;;2.00;;
59734;SDS011;64362;45.620;4.920;2023-02-01T15:02:23;2.97;;;1.83;;
59734;SDS011;64362;45.620;4.920;2023-02-01T15:04:56;2.85;;;1.67;;
59734;SDS011;64362;45.620;4.920;2023-02-01T15:07:21;3.72;;;2.05;;
59734;SDS011;64362;45.620;4.920;2023-02-01T15:09:49;5.15;;;1.92;;
59734;SDS011;64362;45.620;4.920;2023-02-01T15:12:16;4.47;;;2.30;;
59734;SDS011;64362;45.620;4.920;2023-02-01T15:15:02;3.05;;;1.48;;
59734;SDS011;64362;45.620;4.920;2023-02-01T15:17:34;3.17;;;1.90;;
59734;SDS011;64362;45.620;4.920;2023-02-01T15:20:13;3.17;;;1.90;;
59734;SDS011;64362;45.620;4.920;2023-02-01T15:22:41;4.20;;;2.20;;
59734;SDS011;64362;45.620;4.920;2023-02-01T15:25:24;4.85;;;2.20;;
59734;SDS011;64362;45.620;4.920;2023-02-01T15:27:51;3.08;;;1.80;;
59734;SDS011;64362;45.620;4.920;2023-02-01T15:30:19;2.63;;;1.80;;
59734;SDS011;64362;45.620;4.920;2023-02-01T15:32:46;4.13;;;2.10;;
59734;SDS011;64362;45.620;4.920;2023-02-01T15:46:38;4.35;;;1.90;;
59734;SDS011;64362;45.620;4.920;2023-02-01T15:49:15;3.72;;;1.92;;
59734;SDS011;64362;45.620;4.920;2023-02-01T15:52:02;3.47;;;2.00;;
59734;SDS011;64362;45.620;4.920;2023-02-01T15:54:29;2.65;;;1.80;;
59734;SDS011;64362;45.620;4.920;2023-02-01T15:56:57;3.47;;;2.00;;
59734;SDS011;64362;45.620;4.920;2023-02-01T15:59:25;3.47;;;1.73;;
59734;SDS011;64362;45.620;4.920;2023-02-01T16:01:58;4.00;;;1.90;;
59734;SDS011;64362;45.620;4.920;2023-02-01T16:04:27;4.28;;;2.08;;
59734;SDS011;64362;45.620;4.920;2023-02-01T16:07:01;4.72;;;1.70;;
59734;SDS011;64362;45.620;4.920;2023-02-01T16:09:40;5.60;;;2.13;;
59734;SDS011;64362;45.620;4.920;2023-02-01T16:14:54;2.63;;;1.80;;
59734;SDS011;64362;45.620;4.920;2023-02-01T16:17:20;4.38;;;1.60;;
59734;SDS011;64362;45.620;4.920;2023-02-01T16:19:45;4.80;;;1.73;;
59734;SDS011;64362;45.620;4.920;2023-02-01T16:22:11;4.78;;;2.15;;
59734;SDS011;64362;45.620;4.920;2023-02-01T16:24:36;4.75;;;1.98;;
59734;SDS011;64362;45.620;4.920;2023-02-01T16:27:02;4.38;;;1.80;;
59734;SDS011;64362;45.620;4.920;2023-02-01T16:29:28;4.32;;;1.75;;
59734;SDS011;64362;45.620;4.920;2023-02-01T16:31:53;3.42;;;1.65;;
59734;SDS011;64362;45.620;4.920;2023-02-01T16:34:19;3.20;;;1.80;;
59734;SDS011;64362;45.620;4.920;2023-02-01T16:36:48;3.20;;;1.70;;
59734;SDS011;64362;45.620;4.920;2023-02-01T16:39:20;2.40;;;1.38;;
59734;SDS011;64362;45.620;4.920;2023-02-01T16:41:46;3.83;;;1.60;;
59734;SDS011;64362;45.620;4.920;2023-02-01T16:44:11;3.28;;;1.65;;
59734;SDS011;64362;45.620;4.920;2023-02-01T16:46:40;5.22;;;2.05;;
59734;SDS011;64362;45.620;4.920;2023-02-01T16:49:19;6.15;;;1.88;;
59734;SDS011;64362;45.620;4.920;2023-02-01T16:51:49;4.43;;;1.88;;
59734;SDS011;64362;45.620;4.920;2023-02-01T16:54:18;4.25;;;2.00;;
59734;SDS011;64362;45.620;4.920;2023-02-01T16:56:44;3.08;;;1.85;;
59734;SDS011;64362;45.620;4.920;2023-02-01T16:59:10;4.03;;;1.60;;
59734;SDS011;64362;45.620;4.920;2023-02-01T17:01:36;6.95;;;2.03;;
59734;SDS011;64362;45.620;4.920;2023-02-01T17:04:06;5.22;;;1.88;;
59734;SDS011;64362;45.620;4.920;2023-02-01T17:06:32;4.18;;;2.13;;
59734;SDS011;64362;45.620;4.920;2023-02-01T17:08:58;7.38;;;2.00;;
59734;SDS011;64362;45.620;4.920;2023-02-01T17:11:24;5.15;;;1.95;;
59734;SDS011;64362;45.620;4.920;2023-02-01T17:13:51;7.32;;;2.28;;
59734;SDS011;64362;45.620;4.920;2023-02-01T17:18:42;4.40;;;2.05;;
59734;SDS011;64362;45.620;4.920;2023-02-01T17:21:08;3.22;;;1.88;;
59734;SDS011;64362;45.620;4.920;2023-02-01T17:23:34;3.88;;;2.00;;
59734;SDS011;64362;45.620;4.920;2023-02-01T17:25:59;4.72;;;1.90;;
59734;SDS011;64362;45.620;4.920;2023-02-01T17:28:27;4.53;;;1.80;;
59734;SDS011;64362;45.620;4.920;2023-02-01T17:30:53;3.08;;;1.65;;
59734;SDS011;64362;45.620;4.920;2023-02-01T17:33:33;4.35;;;1.80;;
59734;SDS011;64362;45.620;4.920;2023-02-01T17:36:00;5.63;;;2.35;;
59734;SDS011;64362;45.620;4.920;2023-02-01T17:38:26;4.38;;;2.20;;
59734;SDS011;64362;45.620;4.920;2023-02-01T17:40:51;6.63;;;1.95;;
59734;SDS011;64362;45.620;4.920;2023-02-01T17:43:24;8.07;;;1.98;;
59734;SDS011;64362;45.620;4.920;2023-02-01T17:45:54;6.55;;;2.55;;
59734;SDS011;64362;45.620;4.920;2023-02-01T17:48:22;5.65;;;2.08;;
59734;SDS011;64362;45.620;4.920;2023-02-01T17:50:49;6.55;;;2.55;;
59734;SDS011;64362;45.620;4.920;2023-02-01T17:53:18;6.10;;;2.08;;
59734;SDS011;64362;45.620;4.920;2023-02-01T17:55:48;5.57;;;2.60;;
59734;SDS011;64362;45.620;4.920;2023-02-01T17:58:14;6.20;;;2.10;;
59734;SDS011;64362;45.620;4.920;2023-02-01T18:00:41;5.35;;;1.95;;
59734;SDS011;64362;45.620;4.920;2023-02-01T18:03:41;6.13;;;2.53;;
59734;SDS011;64362;45.620;4.920;2023-02-01T18:06:00;7.03;;;2.30;;
59734;SDS011;64362;45.620;4.920;2023-02-01T18:08:27;9.55;;;2.72;;